Ithaca, New York
Current Conditions -  °F | °C
As of 6:56 PM on Sunday 21 Dec 2014 (Local Time) from KITH Reporting Station
Overcast Overcast  
Wind Chill: 29°   Ceiling: 2700
Heat Index: 29°   Visibility: 10mi
Dew Point: 22°   Wind: 3mph
Humidity: 75%   Direction: 100°E
Pressure: 30.3"   Gusts: NA
Location:  42.44°N, 76.49°W
Report Text: KITH 212356Z 10003KT 10SM OVC027 M02/M06 A3030 RMK AO2 51009 T10161055 11005 21016 SLP277
Loading
Personal Weather Stations






























Interactive Weather Map New forecast layout! Learn more

10-Day Weather Forecast

Advertisements
Track Severe Weather on mobile